Jump to content


DELTA AIRLINES FLIGHT DL548 FLOWN ON 08-09-2017 BY CAPTAIN JIM BOERMAN

Pilot StatsCaptain Jim Boerman (LDP136) • 4,616.9 total hours • 1,400 total flights [View Logbook]
FLIGHT DETAILS
StatusReceived and approved on 2017-08-09 at 11:08:58
Origin AirportRoatan Intl (MHRO) • Roatan, Honduras (18 feet MSL)
Filed Flight PlanFLIGHT PLANNER OFFLINE
Destination AirportHartsfield - Jackson Atlanta I (KATL) • Atlanta, Georgia, United States (1,026 feet MSL)
Alternate AirportLovell (KCHA) • Chattanooga, Tennessee, United States (682 feet MSL)
AirlineDelta Airlines
AircraftBoeing 757-200 | Winglets (75W / B757-200)
FS Aircraft UsedQWSim Boeing 757-200WL Delta N688DL QWHDT
Cruising AltitudeFL350
Distance Flown1,046 nautical miles
Passengers Onboard168 passengers (90.32% full)
DEPARTURE DETAILS
Time Out07:30:11
Taxi Data201,871 lbs total with 30,230 lbs of fuel onboard
Takeoff Data07:38:57 (9 minutes after leaving gate/ramp) • 200,615 lbs total • 6° pitch at 160 knots
Departure METARMHRO 090600Z 07020KT 9999 FEW024 BKN070 29/26 Q1010 A2983
ARRIVAL DETAILS
Landing Data11:21:03 • 179,072 lbs total • 1° pitch doing 137 knots at a rate of -262.98 feet/minute with 6,500 lbs of fuel onboard
Time In11:30:29 (9 minutes after landing)
Ramp Weight178,141 lbs total
Total Fuel Used23,730 lbs
Total Block Time02:57:57 (3 hours) while 18 minutes were spent on the ground
Arrival METARKATL 091452Z 08011KT 3SM -DZ BR BKN008 BKN015 OVC040 22/21 A3018 RMK AO2 SFC VIS 5 RAE43DZB48 SLP212 P0007 60010 T02220211 51018
MISCELLANEOUS DETAILS
LiveDISPATCH Version4.8.3.1
FS Version
FSUIPC Version4.93
OS VersionWindows 7 32-bit
Screen Resolution1920 x 1080
Pilot's CommentsNo Comments Reported
FLIGHT MAP